Ceresco, Michigan
Current Conditions -  °F | °C
As of 3:53 AM on Thursday 23 Oct 2014 (Local Time) from KRMY Reporting Station
Moderate Fog Moderate Fog  
Wind Chill: 29°   Ceiling: 200
Heat Index: 29°   Visibility: 0.5mi
Dew Point: 29°   Wind: 0mph
Humidity: 99%   Direction: NA
Pressure: 30.27"   Gusts: NA
Location:  42.27°N, 85.06°W
Report Text: KRMY 230753Z AUTO 00000KT 1/2SM FZFG OVC002 M02/M02 A3027 RMK AO2 T10171018
Loading
Personal Weather Stations






























Interactive Weather Map
Tropical Storm Tracking
New forecast layout! Learn more

10-Day Weather Forecast

Advertisements
Track Severe Weather on mobile